Terminal Aerodrome Forecast
Issued by NWS

Home | Current Version | Previous Version | Text Only | Print | Product List | Glossary On
Versions: 1 2 3 4 5 6 7 8 9 10 11 12 13
000
FTUS46 KSEW 260500
TAFHQM
TAF
KHQM 260530Z 2606/2706 07006KT 5SM BR OVC030
     FM260900 08004KT 4SM BR OVC015
     FM261600 08003KT P6SM OVC010=

USA.gov is the U.S. government's official web portal to all federal, state and local government web resources and services.